Smithfield - 24 Hour Table
Date & TimeSolar
Radiation
(W/m²)
Wind
Speed
(mph)
Wind
Direction
(degrees)
Air
Temperature
(°F)
Relative
Humidity
(%)
Precipitation
(inches)
2017/01/17 18:00 6 1.6 20 9.7 80 0.00
2017/01/17 17:00 99 2.0 271 12.8 74 0.00
2017/01/17 16:00 271 3.9 204 13.8 71 0.00
2017/01/17 15:00 391 2.9 294 14.3 71 0.00
2017/01/17 14:00 454 3.1 208 12.9 67 0.00
2017/01/17 13:00 471 2.7 209 11.4 66 0.00
2017/01/17 12:00 418 2.6 204 11.2 76 0.00
2017/01/17 11:00 324 0.9 191 7.3 76 0.00
2017/01/17 10:00 182 0.0 178 5.6 83 0.00
2017/01/17 09:00 34 0.0 91 -0.0 87 0.00
2017/01/17 08:00 2 0.0 136 0.3 87 0.00
2017/01/17 07:00 0 1.1 63 2.2 88 0.00
2017/01/17 06:00 0 1.7 52 2.1 87 0.00
2017/01/17 05:00 0 2.0 94 1.4 89 0.00
2017/01/17 04:00 0 1.7 145 0.8 91 0.00
2017/01/17 03:00 0 1.9 95 3.4 85 0.00
2017/01/17 02:00 0 3.5 45 3.8 87 0.00
2017/01/17 01:00 0 1.4 121 2.9 92 0.00
2017/01/17 00:00 0 2.1 86 3.9 90 0.00
2017/01/16 23:00 0 2.8 44 5.5 88 0.00
2017/01/16 22:00 0 2.2 54 5.2 88 0.00
2017/01/16 21:00 0 2.3 90 6.5 88 0.00
2017/01/16 20:00 0 2.9 67 7.0 85 0.00
2017/01/16 19:00 0 2.4 70 8.2 85 0.00